.
WxDataArchive / Data Records for 2011-08-08
2011-08-07 August 2011 2011-08-09

Data Records for Monday, 08 August 2011

Time	Temp	Chill	HIndex	Humid	Dewpt	 Wind 	HiWind	WindDir	Rain 	Barom 
-----	----	-----	------	-----	-----	------	------	-------	-----	----- 
00:00	74.7	74.7	74.7	79	67.7	0	0	---	0.00	29.695 
00:05	74.6	74.6	74.6	80	68.0	0	0	---	0.00	29.695 
00:10	74.4	74.4	74.4	80	67.8	0	0	---	0.00	29.695 
00:15	74.0	74.0	74.0	80	67.4	0	0	---	0.00	29.700 
00:20	73.9	73.9	73.9	81	67.7	0	0	---	0.00	29.700 
00:25	73.7	73.7	73.7	81	67.5	0	0	---	0.00	29.700 
00:30	73.5	73.5	73.5	81	67.3	0	0	---	0.00	29.703 
00:35	73.2	73.2	73.2	82	67.4	0	0	---	0.00	29.703 
00:40	73.0	73.0	73.0	82	67.2	0	0	---	0.00	29.703 
00:45	72.8	72.8	72.8	82	67.0	0	0	---	0.00	29.705 
00:50	72.7	72.7	72.7	83	67.2	0	0	---	0.00	29.705 
00:55	72.5	72.5	72.5	83	67.0	0	0	---	0.00	29.705 
01:00	72.3	72.3	72.3	84	67.2	0	0	---	0.00	29.704 
01:05	72.1	72.1	72.1	84	67.0	0	0	---	0.00	29.704 
01:10	71.8	71.8	71.8	84	66.7	0	0	---	0.00	29.704 
01:15	71.6	71.6	71.6	85	66.8	0	0	---	0.00	29.718 
01:20	71.5	71.5	71.5	86	67.1	0	0	---	0.00	29.718 
01:25	71.3	71.3	71.3	86	66.9	0	0	---	0.00	29.718 
01:30	71.1	71.1	71.1	87	67.0	0	0	---	0.00	29.716 
01:35	70.9	70.9	70.9	88	67.2	0	0	---	0.00	29.716 
01:40	70.8	70.8	70.8	88	67.1	0	0	---	0.00	29.716 
01:45	70.6	70.6	70.6	88	66.9	0	0	---	0.00	29.716 
01:50	70.4	70.4	70.4	88	66.7	0	0	---	0.00	29.716 
01:55	70.3	70.3	70.3	88	66.6	0	0	---	0.00	29.716 
02:00	70.3	70.3	70.3	89	66.9	0	0	---	0.00	29.708 
02:05	70.1	70.1	70.1	89	66.7	0	0	---	0.00	29.708 
02:10	69.9	69.9	69.9	89	66.5	0	0	---	0.00	29.708 
02:15	69.9	69.9	69.9	90	66.8	0	0	---	0.00	29.715 
02:20	69.9	69.9	69.9	90	66.8	0	0	---	0.00	29.715 
02:25	69.9	69.9	69.9	91	67.1	0	1	292	0.00	29.715 
02:30	69.9	69.9	69.9	91	67.1	0	1	292	0.00	29.716 
02:35	69.9	69.9	69.9	91	67.1	0	0	---	0.00	29.716 
02:40	69.8	69.8	69.8	91	67.0	0	1	292	0.00	29.716 
02:45	69.8	69.8	69.8	91	67.0	0	1	292	0.00	29.720 
02:50	69.8	69.8	69.8	91	67.0	0	1	292	0.00	29.720 
02:55	69.6	69.6	69.6	90	66.5	0	1	292	0.00	29.720 
03:00	69.6	69.6	69.6	90	66.5	0	0	---	0.00	29.715 
03:05	69.6	69.6	69.6	90	66.5	0	1	292	0.00	29.715 
03:10	69.4	69.4	69.4	90	66.3	0	0	---	0.00	29.715 
03:15	69.3	69.3	69.3	90	66.2	0	1	292	0.00	29.715 
03:20	69.3	69.3	69.3	90	66.2	0	1	292	0.00	29.715 
03:25	69.1	69.1	69.1	90	66.0	0	1	292	0.00	29.715 
03:30	69.1	69.1	69.1	90	66.0	0	1	292	0.00	29.712 
03:35	68.9	68.9	68.9	91	66.2	0	0	---	0.00	29.712 
03:40	68.9	68.9	68.9	91	66.2	0	1	292	0.00	29.712 
03:45	68.8	68.8	68.8	91	66.1	0	1	292	0.00	29.708 
03:50	68.8	68.8	68.8	91	66.1	0	0	---	0.00	29.708 
03:55	68.6	68.6	68.6	91	65.9	0	0	---	0.00	29.708 
04:00	68.6	68.6	68.6	91	65.9	0	1	292	0.00	29.711 
04:05	68.6	68.6	68.6	91	65.9	0	0	---	0.00	29.711 
04:10	68.4	68.4	68.4	92	66.0	0	0	---	0.00	29.711 
04:15	68.4	68.4	68.4	92	66.0	0	0	---	0.00	29.710 
04:20	68.3	68.3	68.3	92	65.9	0	0	---	0.00	29.710 
04:25	68.3	68.3	68.3	92	65.9	0	0	---	0.00	29.710 
04:30	68.1	68.1	68.1	92	65.7	0	0	---	0.00	29.711 
04:35	68.1	68.1	68.1	92	65.7	0	1	292	0.00	29.711 
04:40	68.1	68.1	68.1	92	65.7	0	0	---	0.00	29.711 
04:45	68.1	68.1	68.1	92	65.7	0	1	292	0.00	29.712 
04:50	68.1	68.1	68.1	92	65.7	0	1	292	0.00	29.712 
04:55	68.1	68.1	68.1	93	66.0	0	1	292	0.00	29.712 
05:00	67.9	67.9	67.9	93	65.8	0	1	292	0.00	29.711 
05:05	67.9	67.9	67.9	93	65.8	0	1	292	0.00	29.711 
05:10	67.9	67.9	67.9	93	65.8	0	1	292	0.00	29.711 
05:15	67.8	67.8	67.8	93	65.7	0	0	---	0.00	29.709 
05:20	67.8	67.8	67.8	93	65.7	0	1	292	0.00	29.709 
05:25	67.8	67.8	67.8	93	65.7	0	1	292	0.00	29.709 
05:30	67.6	67.6	67.6	93	65.5	0	1	292	0.00	29.709 
05:35	67.6	67.6	67.6	93	65.5	0	1	292	0.00	29.709 
05:40	67.6	67.6	67.6	93	65.5	0	0	---	0.00	29.709 
05:45	67.6	67.6	67.6	93	65.5	0	2	292	0.00	29.710 
05:50	67.6	67.6	67.6	93	65.5	0	1	292	0.00	29.710 
05:55	67.6	67.6	67.6	93	65.5	0	1	292	0.00	29.710 
06:00	67.6	67.6	67.6	94	65.8	0	1	292	0.00	29.714 
06:05	67.6	67.6	67.6	94	65.8	0	1	292	0.00	29.714 
06:10	67.6	67.6	67.6	94	65.8	0	1	292	0.00	29.714 
06:15	67.4	67.4	67.4	94	65.6	0	1	292	0.00	29.722 
06:20	67.4	67.4	67.4	94	65.6	0	1	292	0.00	29.722 
06:25	67.4	67.4	67.4	94	65.6	0	1	292	0.00	29.722 
06:30	67.4	67.4	67.4	94	65.6	0	2	292	0.00	29.726 
06:35	67.3	67.3	67.3	94	65.5	1	3	292	0.00	29.726 
06:40	67.3	67.3	67.3	94	65.5	0	3	292	0.00	29.726 
06:45	67.1	67.1	67.1	94	65.3	0	2	292	0.00	29.727 
06:50	67.1	67.1	67.1	94	65.3	1	3	292	0.00	29.727 
06:55	67.1	67.1	67.1	94	65.3	0	4	292	0.00	29.727 
07:00	67.3	67.3	67.3	94	65.5	0	2	292	0.00	29.729 
07:05	67.3	67.3	67.3	95	65.8	0	1	292	0.00	29.729 
07:10	67.3	67.3	67.3	95	65.8	0	1	292	0.00	29.729 
07:15	67.4	67.4	67.4	95	65.9	0	1	292	0.00	29.734 
07:20	67.4	67.4	67.4	95	65.9	1	4	292	0.00	29.734 
07:25	67.6	67.6	67.6	95	66.1	1	3	292	0.00	29.734 
07:30	67.6	67.6	67.6	95	66.1	0	3	292	0.00	29.739 
07:35	67.6	67.6	67.6	95	66.1	1	4	292	0.00	29.739 
07:40	67.8	67.8	67.8	95	66.3	1	3	292	0.00	29.739 
07:45	67.8	67.8	67.8	95	66.3	1	2	292	0.00	29.741 
07:50	67.8	67.8	67.8	94	66.0	1	4	292	0.00	29.741 
07:55	67.9	67.9	67.9	94	66.1	0	2	292	0.00	29.741 
08:00	68.1	68.1	68.1	94	66.3	0	2	292	0.00	29.734 
08:05	68.3	68.3	68.3	94	66.5	0	1	292	0.00	29.734 
08:10	68.4	68.4	68.4	94	66.6	0	1	292	0.00	29.734 
08:15	68.4	68.4	68.4	94	66.6	0	1	292	0.00	29.734 
08:20	68.6	68.6	68.6	94	66.8	0	2	292	0.00	29.734 
08:25	68.9	68.9	68.9	93	66.8	0	2	292	0.00	29.734 
08:30	69.1	69.1	69.1	93	67.0	0	3	292	0.00	29.732 
08:35	69.3	69.3	69.3	92	66.9	0	2	292	0.00	29.732 
08:40	69.6	69.6	69.6	92	67.2	0	1	292	0.00	29.732 
08:45	69.8	69.8	69.8	91	67.0	0	2	292	0.00	29.728 
08:50	69.9	69.9	69.9	91	67.1	0	3	292	0.00	29.728 
08:55	69.9	69.9	69.9	90	66.8	0	2	292	0.00	29.728 
09:00	70.1	70.1	70.1	89	66.7	0	2	292	0.00	29.741 
09:05	70.3	70.3	70.3	88	66.6	0	1	292	0.00	29.741 
09:10	70.6	70.6	70.6	87	66.5	0	0	---	0.00	29.741 
09:15	70.8	70.8	70.8	87	66.7	0	2	292	0.00	29.750 
09:20	71.1	71.1	71.1	87	67.0	0	1	292	0.00	29.750 
09:25	71.5	71.5	71.5	86	67.1	1	3	292	0.00	29.750 
09:30	71.6	71.6	71.6	85	66.8	1	3	292	0.00	29.757 
09:35	71.6	71.6	71.6	84	66.5	1	4	292	0.00	29.757 
09:40	71.8	71.8	71.8	84	66.7	0	2	292	0.00	29.757 
09:45	72.0	72.0	72.0	84	66.9	0	1	292	0.00	29.754 
09:50	72.5	72.5	72.5	83	67.0	0	2	292	0.00	29.754 
09:55	72.7	72.7	72.7	82	66.9	0	3	292	0.00	29.754 
10:00	73.0	73.0	73.0	81	66.8	1	3	292	0.00	29.757 
10:05	73.5	73.5	73.5	81	67.3	1	3	292	0.00	29.757 
10:10	73.9	73.9	73.9	79	67.0	1	4	292	0.00	29.757 
10:15	74.2	74.2	74.2	77	66.5	2	6	270	0.00	29.754 
10:20	74.6	74.6	74.6	75	66.1	2	4	270	0.00	29.754 
10:25	74.9	74.9	74.9	73	65.6	2	5	270	0.00	29.754 
10:30	75.4	75.4	76.9	72	65.7	2	4	292	0.00	29.753 
10:35	75.8	75.8	77.3	72	66.1	1	5	292	0.00	29.753 
10:40	76.1	76.1	77.7	71	66.0	2	5	292	0.00	29.753 
10:45	76.5	76.5	78.2	69	65.6	2	5	270	0.00	29.749 
10:50	76.5	76.5	78.2	69	65.6	2	5	292	0.00	29.749 
10:55	77.0	77.0	78.8	69	66.0	1	4	292	0.00	29.749 
11:00	76.8	76.8	78.6	69	65.8	1	5	292	0.00	29.749 
11:05	76.7	76.7	78.4	69	65.7	2	4	292	0.00	29.749 
11:10	77.2	77.2	79.0	69	66.2	1	3	270	0.00	29.749 
11:15	78.1	78.1	80.0	67	66.2	1	3	270	0.00	29.747 
11:20	78.3	78.3	80.2	65	65.5	2	5	270	0.00	29.747 
11:25	78.5	78.5	80.4	64	65.3	1	4	315	0.00	29.747 
11:30	77.9	77.9	79.8	66	65.6	1	3	315	0.00	29.757 
11:35	77.7	77.7	79.6	67	65.8	2	4	315	0.00	29.757 
11:40	77.9	77.9	79.8	68	66.5	2	3	270	0.00	29.757 
11:45	78.5	78.5	80.5	66	66.2	1	3	292	0.00	29.754 
11:50	79.2	79.2	81.2	64	65.9	1	3	292	0.00	29.754 
11:55	79.6	79.6	81.6	63	65.9	1	3	292	0.00	29.754 
12:00	79.9	79.9	82.1	64	66.6	1	4	292	0.00	29.749 
12:05	80.3	80.3	82.2	60	65.1	1	3	292	0.00	29.749 
12:10	80.9	80.9	82.8	59	65.2	0	1	292	0.00	29.749 
12:15	80.3	80.3	81.9	58	64.2	1	3	292	0.00	29.748 
12:20	80.3	80.3	82.1	59	64.6	1	5	292	0.00	29.748 
12:25	80.1	80.1	81.7	58	64.0	1	3	270	0.00	29.748 
12:30	80.1	80.1	81.8	59	64.5	2	4	270	0.00	29.752 
12:35	80.1	80.1	81.9	60	64.9	1	3	292	0.00	29.752 
12:40	79.9	79.9	81.5	58	63.8	3	6	270	0.00	29.752 
12:45	79.8	79.8	81.5	59	64.2	2	4	270	0.00	29.756 
12:50	79.8	79.8	81.5	59	64.2	1	4	315	0.00	29.756 
12:55	80.1	80.1	81.7	58	64.0	1	4	315	0.00	29.756 
13:00	80.3	80.3	81.9	58	64.2	1	3	315	0.00	29.751 
13:05	79.9	79.9	81.5	58	63.8	1	6	292	0.00	29.751 
13:10	80.1	80.1	81.9	60	64.9	0	2	292	0.00	29.751 
13:15	79.9	79.9	81.5	58	63.8	1	4	292	0.00	29.747 
13:20	80.7	80.7	82.4	58	64.5	1	3	292	0.00	29.747 
13:25	80.7	80.7	82.3	57	64.0	3	5	292	0.00	29.747 
13:30	80.3	80.3	82.1	59	64.6	1	3	292	0.00	29.744 
13:35	80.9	80.9	82.5	57	64.2	1	3	292	0.00	29.744 
13:40	81.1	81.1	82.8	57	64.4	1	3	292	0.00	29.744 
13:45	80.9	80.9	82.5	57	64.2	1	4	292	0.00	29.741 
13:50	81.6	81.6	83.2	56	64.4	1	3	292	0.00	29.741 
13:55	82.6	82.6	84.9	58	66.3	1	3	292	0.00	29.741 
14:00	83.2	83.2	84.3	51	63.2	1	3	292	0.00	29.730 
14:05	82.6	82.6	83.8	52	63.2	0	2	338	0.00	29.730 
14:10	82.2	82.2	83.5	53	63.3	0	3	338	0.00	29.730 
14:15	82.2	82.2	83.6	54	63.9	1	3	315	0.00	29.725 
14:20	82.8	82.8	84.2	53	63.9	1	4	292	0.00	29.725 
14:25	82.4	82.4	83.5	52	63.0	0	3	292	0.00	29.725 
14:30	82.2	82.2	83.3	52	62.8	1	3	292	0.00	29.720 
14:35	82.6	82.6	84.0	53	63.7	1	4	270	0.00	29.720 
14:40	82.8	82.8	84.0	52	63.3	1	4	270	0.00	29.720 
14:45	83.0	83.0	84.3	52	63.5	0	2	270	0.00	29.726 
14:50	82.8	82.8	83.8	51	62.8	1	2	270	0.00	29.726 
14:55	82.2	82.2	83.5	53	63.3	1	4	270	0.00	29.726 
15:00	82.0	82.0	83.4	54	63.7	0	2	270	0.00	29.724 
15:05	82.2	82.2	83.6	54	63.9	0	2	270	0.00	29.724 
15:10	83.2	83.2	84.1	50	62.6	1	4	270	0.00	29.724 
15:15	84.5	84.5	85.8	50	63.8	1	3	270	0.00	29.709 
15:20	84.9	84.9	86.1	49	63.6	1	3	292	0.00	29.709 
15:25	85.3	85.3	86.4	48	63.4	1	3	292	0.00	29.709 
15:30	85.7	85.7	86.9	48	63.7	1	3	68	0.00	29.698 
15:35	85.7	85.7	86.4	46	62.5	1	4	292	0.00	29.698 
15:40	85.5	85.5	86.4	47	62.9	0	2	292	0.00	29.698 
15:45	86.1	86.1	87.8	49	64.7	0	3	292	0.00	29.690 
15:50	86.3	86.3	88.0	49	64.9	0	2	22	0.00	29.690 
15:55	86.5	86.5	87.2	45	62.6	1	2	292	0.00	29.690 
16:00	85.7	85.7	86.2	45	61.9	1	3	315	0.00	29.690 
16:05	84.7	84.7	85.6	48	62.8	1	3	315	0.00	29.690 
16:10	83.8	83.8	84.9	50	63.1	1	3	315	0.00	29.690 
16:15	83.4	83.4	84.8	52	63.9	0	2	315	0.00	29.692 
16:20	83.4	83.4	84.8	52	63.9	1	3	315	0.00	29.692 
16:25	83.4	83.4	84.6	51	63.3	1	3	315	0.00	29.692 
16:30	83.0	83.0	84.5	53	64.1	1	2	315	0.00	29.686 
16:35	82.6	82.6	83.8	52	63.2	1	2	315	0.00	29.686 
16:40	82.6	82.6	83.8	52	63.2	0	1	315	0.00	29.686 
16:45	82.6	82.6	83.8	52	63.2	0	1	315	0.00	29.680 
16:50	82.8	82.8	84.0	52	63.3	0	1	315	0.00	29.680 
16:55	83.0	83.0	84.5	53	64.1	0	1	315	0.00	29.680 
17:00	83.0	83.0	84.5	53	64.1	0	1	315	0.00	29.673 
17:05	83.0	83.0	84.1	51	63.0	0	1	315	0.00	29.673 
17:10	83.6	83.6	84.8	51	63.5	0	2	315	0.00	29.673 
17:15	84.1	84.1	85.3	50	63.4	0	3	315	0.00	29.663 
17:20	84.5	84.5	85.1	47	62.0	1	3	315	0.00	29.663 
17:25	84.7	84.7	85.6	48	62.8	1	3	315	0.00	29.663 
17:30	84.7	84.7	85.6	48	62.8	0	2	315	0.00	29.661 
17:35	84.9	84.9	85.6	47	62.4	0	1	315	0.00	29.661 
17:40	84.9	84.9	85.4	46	61.8	0	1	315	0.00	29.661 
17:45	84.9	84.9	85.2	45	61.2	0	1	315	0.00	29.663 
17:50	84.5	84.5	84.5	44	60.2	0	3	315	0.00	29.663 
17:55	84.3	84.3	84.5	45	60.6	0	1	315	0.00	29.663 
18:00	84.1	84.1	84.3	45	60.4	0	1	315	0.00	29.661 
18:05	83.8	83.8	84.1	46	60.8	0	1	315	0.00	29.661 
18:10	83.4	83.4	84.0	48	61.6	0	1	315	0.00	29.661 
18:15	83.0	83.0	83.9	50	62.4	0	0	---	0.00	29.662 
18:20	82.6	82.6	84.1	54	64.2	0	2	315	0.00	29.662 
18:25	82.4	82.4	84.4	57	65.6	0	2	315	0.00	29.662 
18:30	82.0	82.0	84.1	58	65.7	0	3	315	0.00	29.650 
18:35	81.8	81.8	84.0	59	66.0	0	1	315	0.00	29.650 
18:40	81.4	81.4	83.3	58	65.2	2	4	315	0.00	29.650 
18:45	81.2	81.2	83.3	60	66.0	0	2	90	0.00	29.650 
18:50	81.1	81.1	83.0	59	65.4	0	1	90	0.00	29.650 
18:55	81.1	81.1	82.9	58	64.9	0	2	90	0.00	29.650 
19:00	81.1	81.1	83.2	60	65.9	0	1	90	0.00	29.656 
19:05	81.1	81.1	83.3	61	66.4	0	0	---	0.00	29.656 
19:10	80.9	80.9	83.2	62	66.6	0	0	---	0.00	29.656 
19:15	80.7	80.7	82.9	62	66.4	0	1	90	0.00	29.664 
19:20	80.5	80.5	82.8	63	66.7	0	1	90	0.00	29.664 
19:25	80.3	80.3	82.5	63	66.5	0	1	90	0.00	29.664 
19:30	80.1	80.1	82.4	64	66.8	0	1	90	0.00	29.665 
19:35	80.1	80.1	82.4	64	66.8	0	1	90	0.00	29.665 
19:40	79.9	79.9	82.1	64	66.6	0	1	90	0.00	29.665 
19:45	79.8	79.8	82.0	64	66.5	0	1	90	0.00	29.664 
19:50	79.6	79.6	81.8	65	66.8	0	2	90	0.00	29.664 
19:55	79.6	79.6	81.8	65	66.8	0	2	90	0.00	29.664 
20:00	79.4	79.4	81.6	65	66.6	0	0	---	0.00	29.665 
20:05	79.4	79.4	81.6	65	66.6	0	0	---	0.00	29.665 
20:10	79.2	79.2	81.4	66	66.8	0	0	---	0.00	29.665 
20:15	79.0	79.0	81.1	66	66.6	0	0	---	0.00	29.662 
20:20	79.0	79.0	81.2	67	67.1	0	0	---	0.00	29.662 
20:25	78.8	78.8	81.1	69	67.7	0	0	---	0.00	29.662 
20:30	78.6	78.6	80.8	70	68.0	0	0	---	0.00	29.643 
20:35	78.3	78.3	80.5	71	68.1	0	0	---	0.00	29.643 
20:40	77.9	77.9	79.9	72	68.1	0	0	---	0.00	29.643 
20:45	77.7	77.7	79.7	73	68.3	0	0	---	0.00	29.633 
20:50	77.4	77.4	79.3	74	68.4	0	0	---	0.00	29.633 
20:55	77.2	77.2	79.0	76	69.0	0	0	---	0.00	29.633 
21:00	76.8	76.8	78.4	77	69.0	0	0	---	0.00	29.637 
21:05	76.7	76.7	78.2	78	69.3	0	0	---	0.00	29.637 
21:10	76.5	76.5	77.9	78	69.1	0	0	---	0.00	29.637 
21:15	76.3	76.3	77.5	79	69.3	0	0	---	0.00	29.632 
21:20	76.1	76.1	77.1	80	69.5	0	0	---	0.00	29.632 
21:25	76.0	76.0	76.9	81	69.7	0	0	---	0.00	29.632 
21:30	75.8	75.8	76.6	81	69.5	0	0	---	0.00	29.633 
21:35	75.4	75.4	75.9	82	69.5	0	0	---	0.00	29.633 
21:40	75.1	75.1	75.3	83	69.6	0	0	---	0.00	29.633 
21:45	74.9	74.9	74.9	82	69.0	0	0	---	0.00	29.640 
21:50	74.7	74.7	74.7	83	69.2	0	0	---	0.00	29.640 
21:55	74.7	74.7	74.7	83	69.2	0	0	---	0.00	29.640 
22:00	74.6	74.6	74.6	84	69.4	0	0	---	0.01	29.646 
22:05	74.4	74.4	74.4	84	69.2	0	0	---	0.00	29.646 
22:10	74.2	74.2	74.2	84	69.0	0	0	---	0.00	29.646 
22:15	74.0	74.0	74.0	85	69.2	0	0	---	0.01	29.659 
22:20	73.9	73.9	73.9	86	69.4	0	0	---	0.00	29.659 
22:25	73.5	73.5	73.5	87	69.4	0	0	---	0.01	29.659 
22:30	73.3	73.3	73.3	88	69.5	0	0	---	0.01	29.663 
22:35	73.2	73.2	73.2	89	69.8	0	0	---	0.01	29.663 
22:40	73.0	73.0	73.0	89	69.6	0	0	---	0.02	29.663 
22:45	72.5	72.5	72.5	89	69.1	0	1	90	0.01	29.651 
22:50	72.0	72.0	72.0	90	68.9	0	1	90	0.01	29.651 
22:55	71.8	71.8	71.8	90	68.7	0	0	---	0.02	29.651 
23:00	71.8	71.8	71.8	91	69.0	0	0	---	0.01	29.647 
23:05	72.0	72.0	72.0	92	69.5	0	0	---	0.02	29.647 
23:10	71.8	71.8	71.8	92	69.3	0	0	---	0.01	29.647 
23:15	71.6	71.6	71.6	92	69.1	0	1	90	0.01	29.625 
23:20	71.5	71.5	71.5	93	69.4	0	1	90	0.01	29.625 
23:25	71.5	71.5	71.5	93	69.4	0	2	135	0.01	29.625 
23:30	71.3	71.3	71.3	93	69.2	0	2	45	0.02	29.600 
23:35	71.1	71.1	71.1	93	69.0	0	2	135	0.01	29.600 
23:40	70.9	70.9	70.9	93	68.8	0	2	135	0.01	29.600 
23:45	70.9	70.9	70.9	93	68.8	0	3	135	0.01	29.605 
23:50	70.9	70.9	70.9	93	68.8	0	2	135	0.00	29.605 
23:55	70.8	70.8	70.8	93	68.7	1	5	135	0.01	29.605 

CoCoRaHS
IN-AL-39
A2 Web Hosting
Creative Commons License
GoDaddy
search engine by freefind advanced

loaded 2018-11-16 00:45:13 • last modified 2010-11-18 10:43:29
Privacy PolicyDisclaimer
• wx.awcolley.com is powered by PmWiki v.2002016 •
• all content (unless otherwise noted) © 2018 A W Colley